Погода Сычикина неделю

Витебская область, Белоруссия

25 - 31 мая
  • 25мая
    Сегодня
    +10°
    +24°
    Ясно и безоблачно
    ВремяПогодаТемператураВлажностьДавлениеВетер, м/сВероятность осадков
    00:00Ясно и безоблачно+13°C50 %758 мм3.5 м/с2 %
    03:00Ясно и безоблачно+11°C55 %758 мм3.2 м/с2 %
    06:00Ясно и безоблачно+11°C61 %758 мм2.7 м/с2 %
    09:00Ясно и безоблачно+17°C53 %758 мм2.5 м/с2 %
    12:00Ясно и безоблачно+22°C41 %758 мм2.7 м/с2 %
    15:00Ясно и безоблачно+24°C36 %757 мм2.6 м/с2 %
    18:00Ясно и безоблачно+23°C36 %756 мм2.4 м/с2 %
    21:00Ясно и безоблачно+18°C64 %756 мм2.5 м/с2 %
  • 26мая
    Воскресенье
    +12°
    +24°
    Практически безоблачно
    ВремяПогодаТемператураВлажностьДавлениеВетер, м/сВероятность осадков
    00:00Ясно и безоблачно+14°C65 %756 мм2.7 м/с2 %
    03:00Облачно с прояснениями+10°C71 %756 мм2.9 м/с2 %
    06:00Облачно с прояснениями+12°C70 %756 мм0.9 м/с2 %
    09:00Небольшая облачность+19°C50 %756 мм0.9 м/с2 %
    12:00Ясно и безоблачно+23°C37 %756 мм2.0 м/с2 %
    15:00Практически безоблачно+24°C32 %755 мм1.5 м/с2 %
    18:00Практически безоблачно+24°C34 %754 мм3.4 м/с2 %
    21:00Ясно и безоблачно+19°C56 %754 мм2.9 м/с2 %
  • 27мая
    Понедельник
    +13°
    +26°
    Ясно и безоблачно
    ВремяПогодаТемператураВлажностьДавлениеВетер, м/сВероятность осадков
    00:00Ясно и безоблачно+13°C76 %754 мм2.7 м/с2 %
    03:00Ясно и безоблачно+13°C79 %754 мм1.1 м/с2 %
    06:00Ясно и безоблачно+13°C79 %755 мм0.8 м/с2 %
    09:00Ясно и безоблачно+20°C56 %755 мм1.4 м/с2 %
    12:00Практически безоблачно+24°C40 %755 мм2.2 м/с3 %
    15:00Ясно и безоблачно+25°C41 %754 мм2.0 м/с13 %
    18:00Практически безоблачно+25°C45 %754 мм2.5 м/с40 %
    21:00Ясно и безоблачно+20°C68 %754 мм2.1 м/с8 %
  • 28мая
    Вторник
    +14°
    +25°
    Практически безоблачно
    ВремяПогодаТемператураВлажностьДавлениеВетер, м/сВероятность осадков
    00:00Ясно и безоблачно+16°C80 %754 мм2.1 м/с2 %
    03:00Ясно и безоблачно+15°C90 %753 мм2.0 м/с2 %
    06:00Ясно и безоблачно+15°C89 %753 мм2.2 м/с2 %
    09:00Ясно и безоблачно+21°C67 %753 мм2.3 м/с2 %
    12:00Ясно и безоблачно+26°C49 %753 мм2.4 м/с4 %
    15:00Практически безоблачно+26°C44 %752 мм1.3 м/с3 %
    18:00Небольшая облачность+25°C52 %752 мм1.4 м/с8 %
    21:00Практически безоблачно+21°C71 %751 мм2.0 м/с5 %
Мы используем cookies
Соглашаюсь